Time;durP1;ratioP1;P1;durP2;ratioP2;P2;SDS_P1;SDS_P2;PMS_P1;PMS_P2;Temp;Humidity;BMP_temperature;BMP_pressure;BME280_temperature;BME280_humidity;BME280_pressure;Samples;Min_cycle;Max_cycle;Signal;HPM_P1;HPM_P2
2024/02/22 00:01:49;;;;;;;3.42;1.70;;;;;;;;;;5021260;28;20053;-68
2024/02/22 00:04:18;;;;;;;4.80;2.58;;;;;;;;;;5026590;28;20071;-71
2024/02/22 00:06:46;;;;;;;4.38;2.30;;;;;;;;;;5042892;28;20071;-67
2024/02/22 00:09:13;;;;;;;4.10;2.20;;;;;;;;;;5045295;28;20139;-68
2024/02/22 00:11:42;;;;;;;3.85;1.95;;;;;;;;;;5044109;28;20053;-70
2024/02/22 00:14:09;;;;;;;3.00;1.73;;;;;;;;;;5041388;28;20071;-70
2024/02/22 00:16:36;;;;;;;3.55;1.77;;;;;;;;;;4998533;28;20657;-71
2024/02/22 00:19:03;;;;;;;3.70;1.60;;;;;;;;;;5014283;28;20112;-68
2024/02/22 00:21:29;;;;;;;3.85;2.00;;;;;;;;;;5013245;28;20062;-67
2024/02/22 00:23:56;;;;;;;3.20;1.70;;;;;;;;;;5008030;28;20061;-69
2024/02/22 00:26:25;;;;;;;2.97;1.65;;;;;;;;;;5009410;28;20061;-69
2024/02/22 00:28:53;;;;;;;4.18;2.00;;;;;;;;;;5011877;28;20511;-66
2024/02/22 00:31:20;;;;;;;5.07;1.85;;;;;;;;;;5011583;28;20053;-65
2024/02/22 00:33:48;;;;;;;3.47;1.80;;;;;;;;;;5007363;28;20061;-66
2024/02/22 00:36:15;;;;;;;3.38;1.75;;;;;;;;;;5004188;28;20053;-69
2024/02/22 00:38:42;;;;;;;3.85;1.88;;;;;;;;;;5027490;28;20050;-67
2024/02/22 00:41:09;;;;;;;4.38;2.28;;;;;;;;;;5026669;28;20115;-67
2024/02/22 00:43:36;;;;;;;3.83;1.98;;;;;;;;;;5012496;28;20061;-69
2024/02/22 00:46:05;;;;;;;8.13;2.00;;;;;;;;;;4998297;28;20405;-66
2024/02/22 00:48:32;;;;;;;3.45;1.92;;;;;;;;;;5021907;28;20127;-68
2024/02/22 00:50:59;;;;;;;2.97;1.77;;;;;;;;;;5020520;28;20049;-67
2024/02/22 00:53:26;;;;;;;2.95;1.63;;;;;;;;;;5021179;28;20042;-65
2024/02/22 00:55:53;;;;;;;4.45;2.13;;;;;;;;;;4994836;28;20059;-69
2024/02/22 00:58:20;;;;;;;3.65;1.80;;;;;;;;;;5011344;28;20079;-65
2024/02/22 01:00:47;;;;;;;3.53;1.98;;;;;;;;;;4997372;28;20103;-70
2024/02/22 01:03:17;;;;;;;4.03;2.00;;;;;;;;;;4961792;28;20075;-67
2024/02/22 01:05:49;;;;;;;3.78;2.03;;;;;;;;;;4976608;28;20054;-69
2024/02/22 01:08:16;;;;;;;2.80;1.80;;;;;;;;;;4999561;28;20122;-68
2024/02/22 01:10:43;;;;;;;4.55;2.10;;;;;;;;;;4989613;28;20048;-69
2024/02/22 01:13:10;;;;;;;3.58;2.03;;;;;;;;;;5002236;28;20062;-69
2024/02/22 01:15:37;;;;;;;3.45;2.00;;;;;;;;;;4998841;28;20114;-66
2024/02/22 01:18:04;;;;;;;3.42;2.03;;;;;;;;;;4997697;28;20120;-68
2024/02/22 01:20:32;;;;;;;3.85;2.10;;;;;;;;;;4999878;28;20497;-68
2024/02/22 01:23:00;;;;;;;3.80;2.03;;;;;;;;;;4997788;28;20994;-66
2024/02/22 01:25:28;;;;;;;6.07;2.13;;;;;;;;;;4992379;28;20103;-67
2024/02/22 01:27:55;;;;;;;3.70;1.80;;;;;;;;;;4994717;28;20083;-68
2024/02/22 01:30:22;;;;;;;4.18;2.28;;;;;;;;;;4998731;28;20494;-66
2024/02/22 01:32:49;;;;;;;3.00;1.80;;;;;;;;;;5000873;28;20068;-66
2024/02/22 01:35:16;;;;;;;3.28;1.83;;;;;;;;;;4993821;28;20460;-68
2024/02/22 01:37:45;;;;;;;11.50;2.30;;;;;;;;;;4991626;28;20046;-66
2024/02/22 01:40:14;;;;;;;3.55;2.10;;;;;;;;;;4991466;28;20059;-66
2024/02/22 01:42:42;;;;;;;4.43;2.13;;;;;;;;;;5001846;28;20071;-67
2024/02/22 01:45:10;;;;;;;3.85;2.00;;;;;;;;;;4987021;28;20071;-68
2024/02/22 01:47:37;;;;;;;7.93;3.55;;;;;;;;;;5004301;28;20147;-66
2024/02/22 01:50:07;;;;;;;5.35;2.85;;;;;;;;;;4986071;28;20066;-68
2024/02/22 01:52:35;;;;;;;2.67;1.67;;;;;;;;;;4984189;28;20042;-67
2024/02/22 01:55:06;;;;;;;5.72;2.00;;;;;;;;;;4993559;28;20074;-69
2024/02/22 01:57:33;;;;;;;3.63;2.05;;;;;;;;;;4997488;28;20053;-66
2024/02/22 02:00:01;;;;;;;4.25;2.13;;;;;;;;;;4996295;28;20132;-66
2024/02/22 02:02:28;;;;;;;4.03;2.05;;;;;;;;;;4998564;28;20185;-69
2024/02/22 02:04:55;;;;;;;3.95;2.10;;;;;;;;;;4993193;28;20060;-70
2024/02/22 02:07:23;;;;;;;4.80;2.35;;;;;;;;;;4987619;28;20061;-67
2024/02/22 02:09:50;;;;;;;4.07;2.35;;;;;;;;;;4973612;28;20063;-69
2024/02/22 02:12:25;;;;;;;5.03;2.75;;;;;;;;;;4999098;28;20048;-66
2024/02/22 02:14:53;;;;;;;4.22;2.35;;;;;;;;;;4966985;28;20342;-67
2024/02/22 02:17:20;;;;;;;5.70;2.70;;;;;;;;;;4997823;28;20055;-68
2024/02/22 02:19:48;;;;;;;5.45;2.90;;;;;;;;;;4996495;28;20056;-68
2024/02/22 02:22:28;;;;;;;6.60;3.30;;;;;;;;;;4997893;28;20054;-67
2024/02/22 02:25:00;;;;;;;4.80;2.60;;;;;;;;;;4991406;28;20067;-70
2024/02/22 02:27:27;;;;;;;6.97;3.20;;;;;;;;;;4994805;28;20055;-69
2024/02/22 02:29:54;;;;;;;7.10;3.42;;;;;;;;;;4990001;28;20063;-66
2024/02/22 02:32:22;;;;;;;7.00;3.65;;;;;;;;;;4998435;28;20513;-67
2024/02/22 02:34:49;;;;;;;6.75;3.78;;;;;;;;;;4979442;28;20062;-70
2024/02/22 02:37:16;;;;;;;8.10;4.00;;;;;;;;;;4990075;28;20064;-68
2024/02/22 02:39:43;;;;;;;8.32;4.03;;;;;;;;;;4994532;28;20524;-68
2024/02/22 02:42:12;;;;;;;8.68;4.75;;;;;;;;;;4991434;28;20053;-67
2024/02/22 02:44:39;;;;;;;7.30;3.65;;;;;;;;;;4988860;28;20066;-68
2024/02/22 02:47:08;;;;;;;8.88;4.20;;;;;;;;;;4995863;28;20052;-70
2024/02/22 02:49:35;;;;;;;8.30;4.55;;;;;;;;;;4994658;28;20543;-68
2024/02/22 02:52:02;;;;;;;13.93;5.43;;;;;;;;;;4989326;28;20293;-69
2024/02/22 02:54:29;;;;;;;14.15;4.97;;;;;;;;;;4981670;28;20083;-68
2024/02/22 02:56:56;;;;;;;10.73;4.97;;;;;;;;;;4989125;28;20067;-68
2024/02/22 02:59:25;;;;;;;12.10;5.45;;;;;;;;;;4987830;28;20060;-68
2024/02/22 03:01:52;;;;;;;;;;;;;;;;;;4964302;28;20059;-70
2024/02/22 03:04:19;;;;;;;11.88;4.50;;;;;;;;;;4953277;28;19935;-69
2024/02/22 03:06:47;;;;;;;16.03;5.70;;;;;;;;;;4997242;28;20105;-67
2024/02/22 03:09:14;;;;;;;11.57;4.47;;;;;;;;;;4997398;28;20293;-70
2024/02/22 03:11:42;;;;;;;12.10;5.22;;;;;;;;;;4994560;28;20057;-67
2024/02/22 03:14:09;;;;;;;12.40;5.03;;;;;;;;;;4986111;28;21415;-68
2024/02/22 03:16:38;;;;;;;15.15;5.53;;;;;;;;;;4995589;28;20067;-70
2024/02/22 03:19:05;;;;;;;14.30;5.53;;;;;;;;;;4979970;28;20056;-70
2024/02/22 03:21:33;;;;;;;14.02;5.75;;;;;;;;;;4997228;28;20061;-68
2024/02/22 03:24:00;;;;;;;14.33;5.97;;;;;;;;;;4981961;28;20063;-69
2024/02/22 03:26:27;;;;;;;12.95;5.40;;;;;;;;;;4992852;28;20381;-67
2024/02/22 03:28:55;;;;;;;12.30;5.75;;;;;;;;;;4975619;28;20079;-65
2024/02/22 03:31:22;;;;;;;13.07;4.97;;;;;;;;;;4999084;28;20072;-68
2024/02/22 03:33:51;;;;;;;15.15;5.88;;;;;;;;;;4991255;28;20475;-67
2024/02/22 03:36:18;;;;;;;11.63;5.65;;;;;;;;;;4999032;28;20114;-66
2024/02/22 03:38:45;;;;;;;14.35;5.18;;;;;;;;;;4975500;28;20283;-66
2024/02/22 03:41:22;;;;;;;14.90;5.90;;;;;;;;;;4979081;28;20631;-70
2024/02/22 03:43:49;;;;;;;15.37;6.50;;;;;;;;;;4986370;28;20060;-66
2024/02/22 03:46:17;;;;;;;19.63;5.88;;;;;;;;;;5013641;28;20054;-69
2024/02/22 03:48:44;;;;;;;13.02;5.85;;;;;;;;;;5004205;28;20061;-67
2024/02/22 03:51:12;;;;;;;13.35;6.00;;;;;;;;;;5003379;28;20082;-69
2024/02/22 03:53:40;;;;;;;13.20;6.35;;;;;;;;;;4994408;28;20106;-66
2024/02/22 03:56:07;;;;;;;14.50;6.18;;;;;;;;;;4996199;28;21004;-68
2024/02/22 03:58:35;;;;;;;16.38;6.35;;;;;;;;;;5001397;28;20053;-69
2024/02/22 04:01:02;;;;;;;14.25;6.07;;;;;;;;;;5002951;28;20064;-69
2024/02/22 04:03:29;;;;;;;19.33;6.07;;;;;;;;;;4992128;28;20556;-67
2024/02/22 04:05:56;;;;;;;13.68;5.45;;;;;;;;;;4992296;28;20055;-70
2024/02/22 04:08:24;;;;;;;16.25;5.78;;;;;;;;;;5004010;28;20074;-66
2024/02/22 04:10:50;;;;;;;18.40;6.50;;;;;;;;;;5004343;28;20084;-68
2024/02/22 04:13:17;;;;;;;24.85;6.10;;;;;;;;;;4997160;28;20062;-68
2024/02/22 04:15:47;;;;;;;18.73;5.72;;;;;;;;;;4992668;28;20454;-69
2024/02/22 04:18:14;;;;;;;14.95;5.25;;;;;;;;;;4998034;28;20300;-67
2024/02/22 04:20:41;;;;;;;17.70;4.93;;;;;;;;;;5001023;28;20087;-68
2024/02/22 04:23:07;;;;;;;19.65;5.57;;;;;;;;;;5002359;28;20090;-66
2024/02/22 04:25:36;;;;;;;18.73;5.55;;;;;;;;;;4996162;28;20056;-68
2024/02/22 04:28:03;;;;;;;18.90;5.20;;;;;;;;;;4995418;28;20059;-66
2024/02/22 04:30:30;;;;;;;25.67;5.25;;;;;;;;;;5005804;28;20062;-67
2024/02/22 04:32:57;;;;;;;14.63;5.25;;;;;;;;;;5001536;28;20062;-67
2024/02/22 04:35:24;;;;;;;13.95;5.28;;;;;;;;;;4995459;28;20080;-68
2024/02/22 04:37:53;;;;;;;14.13;5.28;;;;;;;;;;4995233;28;20084;-68
2024/02/22 04:40:20;;;;;;;17.55;4.85;;;;;;;;;;4999780;28;20139;-66
2024/02/22 04:42:48;;;;;;;14.77;5.32;;;;;;;;;;4999389;28;20086;-69
2024/02/22 04:45:15;;;;;;;13.73;4.35;;;;;;;;;;4994722;28;20141;-68
2024/02/22 04:47:43;;;;;;;23.45;5.22;;;;;;;;;;4990975;28;20059;-69
2024/02/22 04:50:11;;;;;;;12.03;4.20;;;;;;;;;;4996543;28;20085;-67
2024/02/22 04:52:37;;;;;;;24.35;5.18;;;;;;;;;;4995153;28;20045;-70
2024/02/22 04:55:05;;;;;;;23.00;4.60;;;;;;;;;;4987822;28;20047;-71
2024/02/22 04:57:32;;;;;;;16.77;4.13;;;;;;;;;;4991874;28;20486;-67
2024/02/22 05:00:00;;;;;;;9.75;4.00;;;;;;;;;;4962365;28;20094;-71
2024/02/22 05:02:30;;;;;;;15.65;4.30;;;;;;;;;;5000251;28;20079;-69
2024/02/22 05:04:57;;;;;;;17.75;3.92;;;;;;;;;;4919135;28;20361;-72
2024/02/22 05:07:36;;;;;;;16.25;4.50;;;;;;;;;;4976752;28;20090;-70
2024/02/22 05:10:07;;;;;;;12.88;3.55;;;;;;;;;;4980639;28;20075;-71
2024/02/22 05:12:34;;;;;;;18.70;4.40;;;;;;;;;;4997859;28;20123;-70
2024/02/22 05:15:10;;;;;;;13.07;3.92;;;;;;;;;;4995904;28;20064;-67
2024/02/22 05:17:43;;;;;;;15.27;3.75;;;;;;;;;;4997059;28;20222;-71
2024/02/22 05:20:10;;;;;;;17.85;3.95;;;;;;;;;;4992724;28;20076;-70
2024/02/22 05:22:37;;;;;;;14.77;3.65;;;;;;;;;;4999323;28;20058;-70
2024/02/22 05:25:09;;;;;;;11.57;3.08;;;;;;;;;;4958056;28;20059;-70
2024/02/22 05:27:36;;;;;;;17.20;2.78;;;;;;;;;;4997564;28;20058;-69
2024/02/22 05:30:08;;;;;;;13.27;3.03;;;;;;;;;;4995790;28;20428;-71
2024/02/22 05:32:35;;;;;;;14.23;3.08;;;;;;;;;;4998395;28;20048;-71
2024/02/22 05:35:04;;;;;;;10.65;2.90;;;;;;;;;;4996239;28;20164;-70
2024/02/22 05:37:31;;;;;;;9.52;2.75;;;;;;;;;;4998482;28;20057;-67
2024/02/22 05:39:58;;;;;;;35.63;8.10;;;;;;;;;;4992355;28;20172;-67
2024/02/22 05:42:25;;;;;;;14.52;3.45;;;;;;;;;;4999723;28;20165;-69
2024/02/22 05:44:52;;;;;;;16.15;3.00;;;;;;;;;;4989146;28;20067;-68
2024/02/22 05:47:20;;;;;;;18.48;2.85;;;;;;;;;;4992998;28;20309;-67
2024/02/22 05:49:50;;;;;;;12.60;2.50;;;;;;;;;;4989733;28;20189;-69
2024/02/22 05:52:18;;;;;;;9.10;2.38;;;;;;;;;;4993621;28;20051;-69
2024/02/22 05:54:45;;;;;;;12.98;2.60;;;;;;;;;;4987889;28;20054;-67
2024/02/22 05:57:12;;;;;;;12.70;2.67;;;;;;;;;;4992628;28;20207;-68
2024/02/22 05:59:40;;;;;;;16.50;2.63;;;;;;;;;;4994047;28;20059;-69
2024/02/22 06:02:06;;;;;;;11.52;2.53;;;;;;;;;;4985083;28;20063;-68
2024/02/22 06:04:35;;;;;;;10.18;2.72;;;;;;;;;;4986982;28;20079;-70
2024/02/22 06:07:03;;;;;;;21.02;3.58;;;;;;;;;;4994355;28;20055;-67
2024/02/22 06:09:30;;;;;;;24.20;8.45;;;;;;;;;;4983138;28;20063;-71
2024/02/22 06:11:58;;;;;;;12.43;2.78;;;;;;;;;;4984134;28;20131;-70
2024/02/22 06:14:25;;;;;;;14.38;2.95;;;;;;;;;;4992875;28;20060;-70
2024/02/22 06:16:51;;;;;;;11.55;3.10;;;;;;;;;;4996078;28;20073;-67
2024/02/22 06:19:27;;;;;;;11.68;2.85;;;;;;;;;;5013829;28;20140;-69
2024/02/22 06:21:59;;;;;;;11.43;2.75;;;;;;;;;;4986899;28;20131;-68
2024/02/22 06:24:26;;;;;;;13.07;2.65;;;;;;;;;;4990490;28;20056;-71
2024/02/22 06:26:53;;;;;;;15.43;3.17;;;;;;;;;;4996296;28;20098;-66
2024/02/22 06:29:20;;;;;;;22.00;4.43;;;;;;;;;;4986710;28;20050;-66
2024/02/22 06:31:50;;;;;;;14.45;4.07;;;;;;;;;;4994365;28;20052;-66
2024/02/22 06:34:17;;;;;;;12.68;3.70;;;;;;;;;;4990029;28;20072;-66
2024/02/22 06:36:44;;;;;;;20.42;4.78;;;;;;;;;;4994831;28;20086;-68
2024/02/22 06:39:13;;;;;;;15.55;4.30;;;;;;;;;;4999472;28;20048;-66
2024/02/22 06:41:43;;;;;;;13.48;4.18;;;;;;;;;;5000942;28;20052;-68
2024/02/22 06:44:13;;;;;;;14.15;5.05;;;;;;;;;;4987348;28;20068;-71
2024/02/22 06:46:43;;;;;;;11.93;4.22;;;;;;;;;;4998350;28;20060;-74
2024/02/22 06:49:18;;;;;;;16.17;4.90;;;;;;;;;;4996027;28;20141;-70
2024/02/22 06:51:48;;;;;;;16.83;5.40;;;;;;;;;;4986147;28;20058;-73
2024/02/22 06:54:19;;;;;;;18.40;5.25;;;;;;;;;;4992721;28;20058;-71
2024/02/22 06:56:46;;;;;;;11.65;4.35;;;;;;;;;;4996061;28;20169;-68
2024/02/22 06:59:12;;;;;;;18.00;5.57;;;;;;;;;;4997513;28;20058;-70
2024/02/22 07:01:45;;;;;;;14.63;4.68;;;;;;;;;;4993853;28;20054;-70
2024/02/22 07:04:13;;;;;;;17.52;4.80;;;;;;;;;;4984527;28;20070;-70
2024/02/22 07:06:41;;;;;;;13.52;4.70;;;;;;;;;;4999684;28;20064;-73
2024/02/22 07:09:11;;;;;;;11.63;4.28;;;;;;;;;;4995738;28;20055;-74
2024/02/22 07:11:43;;;;;;;18.75;4.72;;;;;;;;;;4989431;28;20061;-69
2024/02/22 07:14:10;;;;;;;13.23;4.30;;;;;;;;;;4986653;28;20058;-74
2024/02/22 07:16:40;;;;;;;18.73;4.93;;;;;;;;;;4993009;28;20199;-73
2024/02/22 07:19:07;;;;;;;9.85;4.20;;;;;;;;;;4999850;28;20112;-69
2024/02/22 07:21:35;;;;;;;15.00;5.05;;;;;;;;;;4997340;28;20065;-69
2024/02/22 07:24:03;;;;;;;20.50;6.25;;;;;;;;;;4988748;28;20067;-70
2024/02/22 07:26:32;;;;;;;13.73;6.70;;;;;;;;;;5000048;28;20920;-70
2024/02/22 07:29:02;;;;;;;16.95;7.18;;;;;;;;;;5001567;28;20044;-68
2024/02/22 07:31:29;;;;;;;17.40;5.63;;;;;;;;;;4999860;28;20052;-71
2024/02/22 07:33:56;;;;;;;12.85;4.95;;;;;;;;;;4983474;28;20060;-71
2024/02/22 07:36:24;;;;;;;10.27;3.75;;;;;;;;;;4997398;28;20130;-69
2024/02/22 07:38:51;;;;;;;11.13;3.50;;;;;;;;;;5002845;28;20080;-70
2024/02/22 07:41:19;;;;;;;14.80;4.18;;;;;;;;;;5000459;28;20188;-74
2024/02/22 07:43:49;;;;;;;15.65;5.80;;;;;;;;;;4979327;28;20070;-74
2024/02/22 07:46:18;;;;;;;12.20;5.50;;;;;;;;;;5001654;28;20050;-69
2024/02/22 07:48:45;;;;;;;13.52;5.90;;;;;;;;;;4999223;28;20052;-68
2024/02/22 07:51:13;;;;;;;15.52;5.50;;;;;;;;;;5001524;28;20355;-68
2024/02/22 07:53:42;;;;;;;16.83;5.38;;;;;;;;;;4991497;28;20051;-67
2024/02/22 07:56:10;;;;;;;14.05;5.57;;;;;;;;;;5036506;28;20327;-72
2024/02/22 07:58:47;;;;;;;15.87;6.07;;;;;;;;;;5001167;28;20080;-71
2024/02/22 08:01:14;;;;;;;12.18;5.63;;;;;;;;;;4999208;28;20391;-73
2024/02/22 08:03:49;;;;;;;11.60;4.82;;;;;;;;;;4996262;28;20067;-74
2024/02/22 08:06:16;;;;;;;15.20;5.05;;;;;;;;;;4991846;28;20130;-71
2024/02/22 08:08:43;;;;;;;13.63;4.60;;;;;;;;;;5001775;28;20052;-69
2024/02/22 08:11:26;;;;;;;13.98;4.72;;;;;;;;;;5001539;28;20059;-68
2024/02/22 08:13:54;;;;;;;7.60;3.55;;;;;;;;;;4957494;28;20078;-69
2024/02/22 08:16:23;;;;;;;12.13;4.20;;;;;;;;;;4993457;28;20061;-69
2024/02/22 08:18:52;;;;;;;8.13;4.10;;;;;;;;;;4999697;28;20151;-67
2024/02/22 08:21:20;;;;;;;8.77;3.50;;;;;;;;;;4998938;28;20055;-67
2024/02/22 08:23:51;;;;;;;8.75;3.60;;;;;;;;;;4991186;28;20063;-68
2024/02/22 08:26:18;;;;;;;9.32;3.88;;;;;;;;;;4988341;28;20139;-67
2024/02/22 08:28:46;;;;;;;13.40;4.80;;;;;;;;;;4999566;28;20184;-74
2024/02/22 08:31:13;;;;;;;10.73;3.78;;;;;;;;;;4998621;28;20108;-72
2024/02/22 08:33:45;;;;;;;6.93;3.13;;;;;;;;;;4991508;28;20051;-71
2024/02/22 08:36:15;;;;;;;9.80;3.33;;;;;;;;;;4994230;28;20055;-73
2024/02/22 08:38:43;;;;;;;9.60;3.80;;;;;;;;;;4995310;28;20060;-69
2024/02/22 08:41:13;;;;;;;;;;;;;;;;;;4999053;28;20063;-72
2024/02/22 08:43:43;;;;;;;5.82;2.80;;;;;;;;;;4981641;28;19941;-69
2024/02/22 08:46:13;;;;;;;9.00;3.67;;;;;;;;;;5006952;28;20098;-72
2024/02/22 08:48:40;;;;;;;7.97;3.35;;;;;;;;;;4992404;28;20179;-74
2024/02/22 08:51:11;;;;;;;9.95;3.10;;;;;;;;;;5000077;28;20071;-68
2024/02/22 08:53:43;;;;;;;8.10;3.42;;;;;;;;;;4995710;28;20048;-68
2024/02/22 08:56:11;;;;;;;7.65;3.10;;;;;;;;;;4994776;28;20055;-71
2024/02/22 08:58:38;;;;;;;11.05;3.90;;;;;;;;;;4984564;28;20047;-68
2024/02/22 09:01:05;;;;;;;6.75;3.08;;;;;;;;;;4963780;28;20153;-70
2024/02/22 09:03:32;;;;;;;7.07;3.10;;;;;;;;;;4927038;28;20474;-71
2024/02/22 09:06:00;;;;;;;7.10;3.03;;;;;;;;;;4983993;28;20059;-72
2024/02/22 09:08:27;;;;;;;8.77;3.55;;;;;;;;;;4990409;28;20061;-71
2024/02/22 09:10:56;;;;;;;7.05;3.42;;;;;;;;;;4997727;28;20147;-70
2024/02/22 09:13:24;;;;;;;4.97;2.75;;;;;;;;;;4995834;28;20054;-71
2024/02/22 09:15:51;;;;;;;;;;;;;;;;;;4991606;28;20429;-70
2024/02/22 09:18:19;;;;;;;6.30;3.05;;;;;;;;;;5008699;28;19929;-72
2024/02/22 09:20:47;;;;;;;7.70;3.55;;;;;;;;;;4988246;28;20809;-68
2024/02/22 09:23:18;;;;;;;;;;;;;;;;;;4998971;28;20046;-72
2024/02/22 09:25:47;;;;;;;7.15;3.35;;;;;;;;;;4991353;28;20133;-71
2024/02/22 09:28:19;;;;;;;7.97;3.00;;;;;;;;;;4991349;28;20152;-69
2024/02/22 09:30:46;;;;;;;6.78;3.05;;;;;;;;;;4998994;28;20092;-72
2024/02/22 09:33:15;;;;;;;9.10;3.33;;;;;;;;;;4990754;28;20056;-72
2024/02/22 09:35:46;;;;;;;6.22;3.20;;;;;;;;;;4993675;28;20055;-71
2024/02/22 09:38:15;;;;;;;7.97;2.60;;;;;;;;;;4988843;28;20046;-71
2024/02/22 09:40:42;;;;;;;5.82;2.38;;;;;;;;;;4995266;28;20135;-71
2024/02/22 09:43:09;;;;;;;6.03;3.08;;;;;;;;;;4998264;28;20176;-68
2024/02/22 09:45:38;;;;;;;6.53;3.10;;;;;;;;;;4990942;28;20060;-72
2024/02/22 09:48:05;;;;;;;6.70;2.83;;;;;;;;;;4996808;28;20062;-73
2024/02/22 09:50:33;;;;;;;5.38;2.53;;;;;;;;;;5000529;28;20067;-71
2024/02/22 09:53:02;;;;;;;4.77;2.17;;;;;;;;;;4961295;28;20059;-71
2024/02/22 09:55:30;;;;;;;6.10;3.00;;;;;;;;;;4991475;28;20059;-69
2024/02/22 09:58:00;;;;;;;6.78;2.72;;;;;;;;;;4994558;28;20066;-70
2024/02/22 10:00:28;;;;;;;4.25;2.33;;;;;;;;;;5014281;28;20059;-70
2024/02/22 10:02:57;;;;;;;4.13;2.25;;;;;;;;;;4998220;28;20052;-68
2024/02/22 10:05:24;;;;;;;4.80;2.45;;;;;;;;;;4983028;28;20070;-70
2024/02/22 10:07:52;;;;;;;3.92;2.10;;;;;;;;;;4987858;28;20126;-71
2024/02/22 10:10:26;;;;;;;4.50;2.30;;;;;;;;;;5000563;28;20085;-69
2024/02/22 10:12:53;;;;;;;3.25;2.00;;;;;;;;;;5001221;28;20056;-71
2024/02/22 10:15:25;;;;;;;4.75;2.53;;;;;;;;;;4995107;28;20063;-68
2024/02/22 10:17:55;;;;;;;3.72;2.10;;;;;;;;;;4997988;28;20058;-69
2024/02/22 10:20:32;;;;;;;3.95;2.20;;;;;;;;;;5000924;28;20056;-65
2024/02/22 10:23:09;;;;;;;4.10;2.10;;;;;;;;;;5024498;28;20055;-68
2024/02/22 10:25:37;;;;;;;4.28;2.25;;;;;;;;;;4984776;28;20165;-69
2024/02/22 10:28:04;;;;;;;5.88;2.55;;;;;;;;;;5032334;28;20410;-68
2024/02/22 10:30:33;;;;;;;5.07;2.60;;;;;;;;;;4988269;28;20056;-70
2024/02/22 10:33:02;;;;;;;4.47;2.38;;;;;;;;;;5000588;28;20050;-67
2024/02/22 10:35:34;;;;;;;5.13;2.78;;;;;;;;;;4988035;28;20056;-70
2024/02/22 10:38:03;;;;;;;4.18;2.28;;;;;;;;;;4987188;28;20113;-69
2024/02/22 10:40:31;;;;;;;5.65;2.40;;;;;;;;;;5000267;28;20051;-68
2024/02/22 10:42:59;;;;;;;7.03;2.40;;;;;;;;;;5042038;28;20062;-69
2024/02/22 10:45:26;;;;;;;3.72;1.98;;;;;;;;;;4993141;28;20062;-69
2024/02/22 10:47:56;;;;;;;3.25;1.90;;;;;;;;;;5040560;28;20162;-73
2024/02/22 10:50:25;;;;;;;5.22;2.08;;;;;;;;;;4999404;28;20054;-67
2024/02/22 10:52:55;;;;;;;4.43;1.90;;;;;;;;;;5036147;28;20046;-70
2024/02/22 10:55:24;;;;;;;4.13;2.35;;;;;;;;;;4986881;28;20056;-70
2024/02/22 10:57:57;;;;;;;6.03;2.28;;;;;;;;;;4993563;28;20058;-67
2024/02/22 11:00:25;;;;;;;4.15;2.00;;;;;;;;;;4989716;28;20061;-69
2024/02/22 11:02:53;;;;;;;3.88;2.25;;;;;;;;;;4927099;28;20059;-70
2024/02/22 11:05:21;;;;;;;3.28;1.98;;;;;;;;;;4919920;28;20075;-67
2024/02/22 11:07:55;;;;;;;4.50;1.92;;;;;;;;;;4938982;28;20225;-72
2024/02/22 11:10:21;;;;;;;5.05;2.45;;;;;;;;;;4928419;28;20069;-69
2024/02/22 11:12:52;;;;;;;3.22;1.90;;;;;;;;;;4927874;28;20055;-70
2024/02/22 11:15:25;;;;;;;3.40;2.13;;;;;;;;;;4920927;28;20067;-69
2024/02/22 11:17:56;;;;;;;5.20;2.38;;;;;;;;;;4925708;28;20055;-69
2024/02/22 11:20:31;;;;;;;3.22;2.00;;;;;;;;;;4929866;28;20055;-70
2024/02/22 11:23:00;;;;;;;3.28;1.85;;;;;;;;;;4942130;28;20058;-66
2024/02/22 11:25:27;;;;;;;4.57;2.10;;;;;;;;;;4921100;28;20093;-70
2024/02/22 11:27:59;;;;;;;2.85;1.80;;;;;;;;;;4942417;28;20047;-67
2024/02/22 11:30:27;;;;;;;2.95;1.63;;;;;;;;;;4928319;28;20062;-68
2024/02/22 11:32:54;;;;;;;2.67;1.77;;;;;;;;;;4926080;28;20098;-68
2024/02/22 11:35:28;;;;;;;2.95;1.80;;;;;;;;;;4924539;28;20055;-65
2024/02/22 11:38:02;;;;;;;3.03;1.80;;;;;;;;;;4924339;28;20062;-68
2024/02/22 11:40:34;;;;;;;3.65;1.77;;;;;;;;;;4926481;28;20550;-70
2024/02/22 11:43:02;;;;;;;2.58;1.55;;;;;;;;;;4927514;28;20146;-69
2024/02/22 11:45:29;;;;;;;4.03;1.92;;;;;;;;;;4923473;28;20075;-72
2024/02/22 11:47:56;;;;;;;3.65;1.83;;;;;;;;;;4924470;28;20062;-70
2024/02/22 11:50:24;;;;;;;2.97;1.67;;;;;;;;;;4942719;28;20150;-70
2024/02/22 11:52:51;;;;;;;2.28;1.40;;;;;;;;;;4943385;28;20059;-71
2024/02/22 11:55:20;;;;;;;4.37;2.00;;;;;;;;;;4916250;28;20146;-68
2024/02/22 11:57:50;;;;;;;2.40;1.58;;;;;;;;;;4926717;28;20055;-68
2024/02/22 12:00:18;;;;;;;4.38;1.95;;;;;;;;;;4927444;28;20053;-68
2024/02/22 12:02:45;;;;;;;3.97;1.55;;;;;;;;;;4981230;28;20056;-72
2024/02/22 12:05:13;;;;;;;2.03;1.38;;;;;;;;;;4991997;28;20055;-69
2024/02/22 12:07:41;;;;;;;2.85;1.60;;;;;;;;;;4997553;28;20068;-71
2024/02/22 12:10:11;;;;;;;2.15;1.45;;;;;;;;;;4991729;28;20064;-69
2024/02/22 12:12:41;;;;;;;3.10;1.77;;;;;;;;;;4996854;28;20055;-65
2024/02/22 12:15:09;;;;;;;2.78;1.40;;;;;;;;;;4993919;28;20053;-68
2024/02/22 12:17:36;;;;;;;;;;;;;;;;;;5000321;28;20070;-66
2024/02/22 12:20:06;;;;;;;2.58;1.50;;;;;;;;;;4995081;28;20345;-70
2024/02/22 12:22:36;;;;;;;2.38;1.20;;;;;;;;;;4996245;28;20055;-69
2024/02/22 12:25:03;;;;;;;1.73;1.25;;;;;;;;;;4987505;28;20056;-71
2024/02/22 12:27:30;;;;;;;5.97;1.63;;;;;;;;;;4999920;28;20108;-69
2024/02/22 12:29:58;;;;;;;1.67;1.10;;;;;;;;;;4998824;28;20086;-70
2024/02/22 12:32:25;;;;;;;2.25;1.40;;;;;;;;;;4999745;28;20059;-70
2024/02/22 12:34:53;;;;;;;3.08;1.17;;;;;;;;;;4993095;28;20048;-69
2024/02/22 12:37:20;;;;;;;2.50;1.27;;;;;;;;;;4994003;28;20075;-66
2024/02/22 12:39:47;;;;;;;2.65;1.40;;;;;;;;;;4977221;28;20060;-66
2024/02/22 12:42:14;;;;;;;1.98;1.30;;;;;;;;;;4986888;28;20058;-67
2024/02/22 12:44:42;;;;;;;1.83;1.10;;;;;;;;;;4994510;28;20135;-69
2024/02/22 12:47:12;;;;;;;2.05;1.38;;;;;;;;;;5001557;28;20056;-67
2024/02/22 12:49:39;;;;;;;3.03;1.20;;;;;;;;;;4996162;28;20153;-68
2024/02/22 12:52:08;;;;;;;2.10;1.23;;;;;;;;;;4993552;28;20121;-66
2024/02/22 12:54:35;;;;;;;1.95;1.30;;;;;;;;;;4993999;28;20056;-68
2024/02/22 12:57:02;;;;;;;2.85;1.27;;;;;;;;;;4998758;28;20188;-66
2024/02/22 12:59:30;;;;;;;1.40;0.90;;;;;;;;;;4997066;28;20071;-71
2024/02/22 13:02:00;;;;;;;2.35;1.17;;;;;;;;;;4992964;28;20135;-67
2024/02/22 13:04:29;;;;;;;1.67;1.02;;;;;;;;;;4990879;28;20052;-66
2024/02/22 13:06:56;;;;;;;2.38;1.27;;;;;;;;;;5013305;28;20969;-71
2024/02/22 13:09:23;;;;;;;1.88;1.33;;;;;;;;;;5000199;28;20056;-68
2024/02/22 13:11:54;;;;;;;4.45;1.50;;;;;;;;;;4994059;28;20055;-68
2024/02/22 13:14:21;;;;;;;2.97;1.30;;;;;;;;;;4987530;28;20048;-70
2024/02/22 13:16:48;;;;;;;2.60;1.23;;;;;;;;;;5000258;28;20056;-68
2024/02/22 13:19:15;;;;;;;3.00;1.42;;;;;;;;;;4995539;28;20706;-66
2024/02/22 13:21:44;;;;;;;1.95;1.13;;;;;;;;;;4990631;28;20070;-69
2024/02/22 13:24:18;;;;;;;1.17;0.93;;;;;;;;;;4983345;28;20048;-70
2024/02/22 13:26:48;;;;;;;2.60;1.02;;;;;;;;;;4984896;28;20063;-67
2024/02/22 13:29:15;;;;;;;1.27;0.98;;;;;;;;;;4993274;28;20059;-68
2024/02/22 13:31:42;;;;;;;1.55;0.93;;;;;;;;;;4996918;28;20060;-66
2024/02/22 13:34:09;;;;;;;1.40;0.90;;;;;;;;;;4974826;28;20141;-67
2024/02/22 13:36:36;;;;;;;4.68;0.90;;;;;;;;;;5000713;28;20499;-66
2024/02/22 13:39:07;;;;;;;3.38;1.02;;;;;;;;;;4999712;28;20049;-69
2024/02/22 13:41:34;;;;;;;4.50;1.23;;;;;;;;;;4999256;28;20067;-67
2024/02/22 13:44:02;;;;;;;1.90;1.10;;;;;;;;;;4979436;28;20204;-73
2024/02/22 13:46:30;;;;;;;1.42;0.98;;;;;;;;;;4998255;28;20198;-66
2024/02/22 13:48:58;;;;;;;3.50;1.00;;;;;;;;;;4999048;28;20054;-65
2024/02/22 13:51:26;;;;;;;1.05;0.90;;;;;;;;;;4994343;28;20066;-69
2024/02/22 13:53:57;;;;;;;1.33;0.88;;;;;;;;;;4984227;28;20067;-66
2024/02/22 13:56:26;;;;;;;0.85;0.63;;;;;;;;;;4991463;28;20055;-69
2024/02/22 13:58:55;;;;;;;1.92;1.00;;;;;;;;;;4998898;28;20895;-68
2024/02/22 14:01:21;;;;;;;1.48;0.88;;;;;;;;;;4997891;28;20132;-66
2024/02/22 14:03:49;;;;;;;1.48;0.90;;;;;;;;;;4961781;28;20055;-65
2024/02/22 14:06:18;;;;;;;1.33;0.90;;;;;;;;;;4995899;28;20058;-68
2024/02/22 14:08:45;;;;;;;1.60;1.00;;;;;;;;;;4983186;28;20051;-70
2024/02/22 14:11:12;;;;;;;2.67;0.90;;;;;;;;;;4998101;28;20038;-68
2024/02/22 14:13:43;;;;;;;1.38;1.00;;;;;;;;;;4983231;28;20053;-66
2024/02/22 14:16:10;;;;;;;1.00;0.90;;;;;;;;;;4986020;28;20042;-69
2024/02/22 14:18:37;;;;;;;1.73;0.80;;;;;;;;;;4980043;28;20149;-69
2024/02/22 14:21:05;;;;;;;1.13;0.80;;;;;;;;;;5041422;28;20063;-71
2024/02/22 14:23:35;;;;;;;1.27;0.80;;;;;;;;;;4989257;28;20063;-67
2024/02/22 14:26:06;;;;;;;2.55;1.00;;;;;;;;;;4988794;28;20173;-70
2024/02/22 14:28:35;;;;;;;0.82;0.80;;;;;;;;;;4994893;28;20153;-68
2024/02/22 14:31:04;;;;;;;0.88;0.77;;;;;;;;;;4995394;28;20057;-69
2024/02/22 14:33:31;;;;;;;0.88;0.57;;;;;;;;;;4997423;28;20056;-66
2024/02/22 14:35:58;;;;;;;2.15;0.80;;;;;;;;;;4981791;28;20149;-69
2024/02/22 14:38:27;;;;;;;1.70;1.10;;;;;;;;;;5000014;28;20082;-67
2024/02/22 14:40:54;;;;;;;0.90;0.80;;;;;;;;;;4993880;28;20083;-66
2024/02/22 14:43:24;;;;;;;1.25;0.85;;;;;;;;;;4998206;28;20080;-68
2024/02/22 14:45:55;;;;;;;2.00;0.80;;;;;;;;;;4990020;28;20053;-71
2024/02/22 14:48:26;;;;;;;2.30;0.50;;;;;;;;;;4998054;28;20052;-69